createdAt,value
2019-04-28T00:02:26.853Z,10.05
2019-04-28T00:04:58.450Z,13.25
2019-04-28T00:07:29.953Z,13.03
2019-04-28T00:10:02.736Z,11.22
2019-04-28T00:12:35.663Z,15.38
2019-04-28T00:15:10.765Z,12.47
2019-04-28T00:17:42.475Z,9.08
2019-04-28T00:20:15.402Z,12.90
2019-04-28T00:22:51.582Z,13.30
2019-04-28T00:25:24.679Z,16.77
2019-04-28T00:27:56.261Z,16.67
2019-04-28T00:30:27.805Z,16.87
2019-04-28T00:32:59.323Z,23.25
2019-04-28T00:35:31.883Z,15.25
2019-04-28T00:38:04.061Z,13.70
2019-04-28T00:40:35.520Z,17.35
2019-04-28T00:43:06.964Z,16.77
2019-04-28T00:45:38.413Z,13.85
2019-04-28T00:48:10.966Z,19.75
2019-04-28T00:50:43.789Z,16.37
2019-04-28T00:53:15.344Z,20.27
2019-04-28T00:55:46.849Z,19.42
2019-04-28T00:58:18.262Z,11.83
2019-04-28T01:00:51.469Z,17.40
2019-04-28T01:03:23.972Z,16.80
2019-04-28T01:05:55.455Z,12.50
2019-04-28T01:08:26.879Z,13.70
2019-04-28T01:10:58.353Z,13.65
2019-04-28T01:13:31.835Z,16.17
2019-04-28T01:16:05.126Z,23.52
2019-04-28T01:18:44.076Z,25.05
2019-04-28T01:21:15.564Z,21.50
2019-04-28T01:23:47.425Z,17.30
2019-04-28T01:26:20.005Z,28.15
2019-04-28T01:28:51.518Z,14.63
2019-04-28T01:31:27.189Z,20.37
2019-04-28T01:34:16.713Z,24.72
2019-04-28T01:36:49.578Z,13.88
2019-04-28T01:39:21.373Z,15.32
2019-04-28T01:41:52.732Z,17.67
2019-04-28T01:44:24.149Z,12.40
2019-04-28T01:46:55.614Z,9.03
2019-04-28T01:49:26.991Z,11.28
2019-04-28T01:52:01.133Z,10.05
2019-04-28T01:54:32.676Z,13.48
2019-04-28T01:57:04.025Z,9.43
2019-04-28T01:59:35.395Z,12.43
2019-04-28T02:02:07.067Z,14.83
2019-04-28T02:04:40.204Z,13.20
2019-04-28T02:07:11.751Z,15.45
2019-04-28T02:09:43.202Z,11.15
2019-04-28T02:12:15.372Z,15.00
2019-04-28T02:14:46.937Z,15.48
2019-04-28T02:17:20.184Z,21.97
2019-04-28T02:19:51.722Z,10.60
2019-04-28T02:22:27.460Z,14.15
2019-04-28T02:25:00.314Z,15.28
2019-04-28T02:27:31.970Z,12.55
2019-04-28T02:30:04.483Z,14.55
2019-04-28T02:32:35.967Z,12.33
2019-04-28T02:35:10.532Z,13.58
2019-04-28T02:37:41.276Z,10.40
2019-04-28T02:40:12.700Z,14.30
2019-04-28T02:42:44.152Z,10.38
2019-04-28T02:45:21.489Z,10.95
2019-04-28T02:47:53.200Z,10.48
2019-04-28T02:50:26.293Z,11.18
2019-04-28T02:53:01.614Z,12.88
2019-04-28T02:55:32.964Z,9.85
2019-04-28T02:58:04.285Z,7.22
2019-04-28T03:00:35.573Z,8.98
2019-04-28T03:03:07.006Z,8.78
2019-04-28T03:05:40.989Z,11.80
2019-04-28T03:08:11.565Z,6.45
2019-04-28T03:10:42.900Z,8.53
2019-04-28T03:13:14.196Z,10.03
2019-04-28T03:15:45.616Z,9.35
2019-04-28T03:18:16.823Z,6.53
2019-04-28T03:20:48.104Z,11.40
2019-04-28T03:23:20.627Z,9.15
2019-04-28T03:25:53.883Z,9.08
2019-04-28T03:28:26.908Z,8.63
2019-04-28T03:31:13.140Z,11.08
2019-04-28T03:33:41.952Z,11.55
2019-04-28T03:36:14.782Z,9.73
2019-04-28T03:38:42.598Z,9.93
2019-04-28T03:41:13.854Z,10.23
2019-04-28T03:43:45.323Z,8.83
2019-04-28T03:46:20.991Z,14.05
2019-04-28T03:48:52.489Z,17.05
2019-04-28T03:51:23.837Z,9.70
2019-04-28T03:53:55.239Z,14.53
2019-04-28T03:56:26.741Z,17.70
2019-04-28T03:59:00.461Z,10.75
2019-04-28T04:01:31.422Z,14.63
2019-04-28T04:04:03.632Z,16.23
2019-04-28T04:06:37.986Z,16.80
2019-04-28T04:09:11.252Z,15.53
2019-04-28T04:11:44.356Z,15.38
2019-04-28T04:14:21.107Z,17.60
2019-04-28T04:17:00.277Z,13.85
2019-04-28T04:19:34.358Z,12.23
2019-04-28T04:22:05.707Z,14.85
2019-04-28T04:24:37.233Z,19.95
2019-04-28T04:27:10.761Z,12.28
2019-04-28T04:29:43.661Z,11.95
2019-04-28T04:32:23.091Z,11.48
2019-04-28T04:34:50.428Z,13.40
2019-04-28T04:37:21.197Z,9.18
2019-04-28T04:39:52.622Z,14.23
2019-04-28T04:42:23.930Z,13.30
2019-04-28T04:44:55.459Z,13.65
2019-04-28T04:47:26.833Z,14.35
2019-04-28T04:50:00.282Z,20.48
2019-04-28T04:52:31.449Z,13.98
2019-04-28T04:55:02.960Z,17.37
2019-04-28T04:57:34.348Z,14.95
2019-04-28T05:00:10.138Z,13.27
2019-04-28T05:02:51.125Z,11.80
2019-04-28T05:05:18.079Z,13.60
2019-04-28T05:07:50.737Z,16.48
2019-04-28T05:10:22.215Z,17.20
2019-04-28T05:12:53.618Z,12.13
2019-04-28T05:15:26.029Z,15.13
2019-04-28T05:17:57.347Z,14.55
2019-04-28T05:20:30.267Z,15.35
2019-04-28T05:23:03.604Z,13.48
2019-04-28T05:25:39.915Z,14.13
2019-04-28T05:28:11.310Z,10.78
2019-04-28T05:30:43.080Z,12.25
2019-04-28T05:33:16.274Z,17.12
2019-04-28T05:35:50.096Z,12.35
2019-04-28T05:38:22.633Z,10.45
2019-04-28T05:40:54.345Z,11.45
2019-04-28T05:43:25.746Z,9.43
2019-04-28T05:45:56.980Z,16.60
2019-04-28T05:48:46.564Z,11.43
2019-04-28T05:51:19.949Z,16.48
2019-04-28T05:53:53.881Z,13.90
2019-04-28T05:56:27.034Z,10.65
2019-04-28T05:59:00.635Z,11.48
2019-04-28T06:01:33.981Z,12.30
2019-04-28T06:04:05.507Z,13.78
2019-04-28T06:06:40.406Z,11.30
2019-04-28T06:09:22.409Z,13.40
2019-04-28T06:11:54.628Z,11.73
2019-04-28T06:14:26.213Z,14.15
2019-04-28T06:16:57.609Z,13.72
2019-04-28T06:19:30.201Z,22.75
2019-04-28T06:22:01.654Z,12.37
2019-04-28T06:24:33.114Z,15.32
2019-04-28T06:27:04.559Z,16.32
2019-04-28T06:29:36.113Z,15.58
2019-04-28T06:32:08.027Z,15.43
2019-04-28T06:34:42.197Z,17.48
2019-04-28T06:37:13.563Z,14.13
2019-04-28T06:39:47.306Z,17.17
2019-04-28T06:44:48.925Z,15.93
2019-04-28T06:47:20.275Z,19.98
2019-04-28T06:49:51.786Z,17.23
2019-04-28T06:52:23.275Z,31.55
2019-04-28T06:54:54.685Z,27.07
2019-04-28T06:57:27.217Z,23.10
2019-04-28T06:59:58.588Z,28.07
2019-04-28T07:02:30.036Z,20.80
2019-04-28T07:05:02.554Z,26.68
2019-04-28T07:07:34.314Z,26.02
2019-04-28T07:10:07.251Z,24.85
2019-04-28T07:12:38.850Z,18.15
2019-04-28T07:15:11.488Z,17.70
2019-04-28T07:17:43.162Z,27.58
2019-04-28T07:20:25.586Z,23.35
2019-04-28T07:22:57.082Z,21.87
2019-04-28T07:25:29.658Z,21.40
2019-04-28T07:28:01.180Z,23.18
2019-04-28T07:30:32.826Z,21.75
2019-04-28T07:33:04.642Z,20.70
2019-04-28T07:35:36.256Z,19.20
2019-04-28T07:38:07.805Z,27.17
2019-04-28T07:40:39.244Z,33.00
2019-04-28T07:43:10.871Z,24.27
2019-04-28T07:45:43.559Z,15.55
2019-04-28T07:48:15.355Z,19.37
2019-04-28T07:50:46.835Z,19.45
2019-04-28T07:53:20.020Z,18.82
2019-04-28T07:55:51.502Z,22.45
2019-04-28T07:58:22.923Z,21.37
2019-04-28T08:00:54.377Z,25.25
2019-04-28T08:03:25.840Z,18.07
2019-04-28T08:05:57.302Z,22.25
2019-04-28T08:08:28.727Z,19.12
2019-04-28T08:11:00.213Z,21.20
2019-04-28T08:13:31.734Z,27.15
2019-04-28T08:16:03.081Z,17.27
2019-04-28T08:18:35.776Z,19.02
2019-04-28T08:21:07.136Z,20.60
2019-04-28T08:23:47.067Z,21.25
2019-04-28T08:26:12.927Z,13.08
2019-04-28T08:28:44.465Z,12.07
2019-04-28T08:31:17.701Z,13.72
2019-04-28T08:34:01.676Z,10.45
2019-04-28T08:36:23.809Z,14.18
2019-04-28T08:38:55.074Z,8.53
2019-04-28T08:41:26.451Z,7.70
2019-04-28T08:43:57.741Z,8.68
2019-04-28T08:46:30.780Z,4.92
2019-04-28T08:49:02.071Z,6.12
2019-04-28T08:51:33.450Z,6.92
2019-04-28T08:54:04.899Z,7.37
2019-04-28T08:56:36.153Z,12.35
2019-04-28T08:59:07.568Z,5.15
2019-04-28T09:01:38.825Z,6.08
2019-04-28T09:04:15.514Z,4.42
2019-04-28T09:06:43.238Z,9.35
2019-04-28T09:09:16.129Z,4.42
2019-04-28T09:11:47.349Z,8.58
2019-04-28T09:14:18.733Z,4.35
2019-04-28T09:16:51.088Z,6.60
2019-04-28T09:19:22.453Z,5.50
2019-04-28T09:21:53.797Z,5.47
2019-04-28T09:24:25.097Z,7.35
2019-04-28T09:26:56.478Z,6.05
2019-04-28T09:29:28.062Z,9.00
2019-04-28T09:31:59.513Z,4.28
2019-04-28T09:34:30.954Z,7.80
2019-04-28T09:37:02.255Z,5.20
2019-04-28T09:39:47.155Z,21.15
2019-04-28T09:42:33.386Z,22.25
2019-04-28T09:45:16.061Z,12.50
2019-04-28T09:47:47.596Z,8.60
2019-04-28T09:50:18.889Z,6.45
2019-04-28T09:52:50.176Z,27.02
2019-04-28T09:55:21.594Z,11.75
2019-04-28T09:57:54.798Z,32.13
2019-04-28T10:02:56.738Z,18.67
2019-04-28T10:05:28.131Z,12.88
2019-04-28T10:07:59.710Z,13.65
2019-04-28T10:10:31.152Z,29.85
2019-04-28T10:13:02.571Z,11.73
2019-04-28T10:15:34.013Z,9.48
2019-04-28T10:18:05.268Z,9.63
2019-04-28T10:20:36.581Z,7.28
2019-04-28T10:23:07.909Z,7.78
2019-04-28T10:25:39.135Z,11.95
2019-04-28T10:28:10.712Z,7.95
2019-04-28T10:30:42.070Z,13.10
2019-04-28T10:33:13.675Z,11.70
2019-04-28T10:35:45.225Z,8.60
2019-04-28T10:38:16.689Z,7.70
2019-04-28T10:40:55.558Z,13.10
2019-04-28T10:43:27.044Z,9.05
2019-04-28T10:45:59.360Z,9.55
2019-04-28T10:48:31.191Z,9.43
2019-04-28T10:51:02.536Z,14.58
2019-04-28T10:53:33.987Z,12.05
2019-04-28T10:56:05.438Z,14.78
2019-04-28T10:58:36.808Z,12.40
2019-04-28T11:01:08.390Z,14.85
2019-04-28T11:03:40.887Z,12.98
2019-04-28T11:06:12.698Z,12.68
2019-04-28T11:08:45.787Z,15.63
2019-04-28T11:11:18.955Z,10.95
2019-04-28T11:13:50.237Z,16.12
2019-04-28T11:16:23.224Z,21.30
2019-04-28T11:18:54.645Z,19.98
2019-04-28T11:21:25.991Z,20.88
2019-04-28T11:23:57.614Z,16.07
2019-04-28T11:26:29.199Z,17.30
2019-04-28T11:29:00.706Z,15.93
2019-04-28T11:31:32.164Z,15.15
2019-04-28T11:34:05.229Z,16.62
2019-04-28T11:39:10.020Z,17.85
2019-04-28T11:41:43.045Z,15.90
2019-04-28T11:44:14.614Z,19.40
2019-04-28T11:46:46.136Z,20.43
2019-04-28T11:49:17.632Z,21.15
2019-04-28T11:51:49.274Z,20.52
2019-04-28T11:54:20.796Z,19.30
2019-04-28T11:56:52.297Z,18.98
2019-04-28T11:59:23.895Z,15.95
2019-04-28T12:01:55.542Z,18.32
2019-04-28T12:04:27.009Z,16.25
2019-04-28T12:06:58.448Z,17.67
2019-04-28T12:09:34.257Z,19.67
2019-04-28T12:12:08.721Z,16.27
2019-04-28T12:14:41.860Z,20.23
2019-04-28T12:17:27.025Z,16.10
2019-04-28T12:20:00.302Z,18.05
2019-04-28T12:25:02.148Z,18.95
2019-04-28T12:27:33.798Z,15.93
2019-04-28T12:30:05.953Z,19.10
2019-04-28T12:32:37.628Z,23.47
2019-04-28T12:35:09.274Z,12.23
2019-04-28T12:37:40.701Z,12.25
2019-04-28T12:40:12.658Z,13.43
2019-04-28T12:42:44.275Z,13.78
2019-04-28T12:45:17.323Z,13.75
2019-04-28T12:47:48.732Z,14.50
2019-04-28T12:50:21.958Z,14.75
2019-04-28T12:52:53.461Z,10.58
2019-04-28T12:55:24.976Z,11.70
2019-04-28T12:57:56.566Z,13.40
2019-04-28T13:00:29.550Z,9.30
2019-04-28T13:03:18.717Z,17.40
2019-04-28T13:06:01.579Z,18.62
2019-04-28T13:08:24.969Z,13.43
2019-04-28T13:10:56.452Z,10.88
2019-04-28T13:13:28.014Z,11.88
2019-04-28T13:15:59.471Z,14.98
2019-04-28T13:18:31.062Z,8.63
2019-04-28T13:21:02.345Z,9.93
2019-04-28T13:23:34.742Z,7.95
2019-04-28T13:26:05.968Z,8.35
2019-04-28T13:28:37.251Z,7.72
2019-04-28T13:31:08.572Z,12.00
2019-04-28T13:33:53.816Z,13.32
2019-04-28T13:36:15.016Z,10.28
2019-04-28T13:41:16.505Z,11.80
2019-04-28T13:43:47.887Z,13.65
2019-04-28T13:46:19.141Z,19.37
2019-04-28T13:48:50.476Z,17.20
2019-04-28T13:51:21.967Z,11.43
2019-04-28T13:53:53.559Z,23.25
2019-04-28T13:56:25.022Z,19.27
2019-04-28T13:58:58.109Z,18.82
2019-04-28T14:01:31.239Z,12.63
2019-04-28T14:04:16.417Z,15.75
2019-04-28T14:06:49.513Z,11.53
2019-04-28T14:09:20.773Z,10.40
2019-04-28T14:11:52.328Z,12.98
2019-04-28T14:14:24.139Z,13.80
2019-04-28T14:16:55.645Z,18.42
2019-04-28T14:19:26.998Z,15.43
2019-04-28T14:21:58.383Z,19.00
2019-04-28T14:24:29.819Z,29.30
2019-04-28T14:27:02.335Z,17.17
2019-04-28T14:29:33.854Z,23.67
2019-04-28T14:32:05.283Z,22.60
2019-04-28T14:34:36.905Z,22.02
2019-04-28T14:37:08.352Z,16.45
2019-04-28T14:39:39.978Z,14.60
2019-04-28T14:42:11.437Z,15.95
2019-04-28T14:44:42.885Z,16.65
2019-04-28T14:47:14.389Z,15.88
2019-04-28T14:49:45.786Z,12.93
2019-04-28T14:52:17.306Z,19.92
2019-04-28T14:54:49.801Z,17.48
2019-04-28T14:57:21.303Z,12.50
2019-04-28T14:59:52.710Z,23.00
2019-04-28T15:02:43.117Z,16.07
2019-04-28T15:05:19.166Z,12.90
2019-04-28T15:08:08.545Z,15.15
2019-04-28T15:10:53.742Z,16.65
2019-04-28T15:13:26.185Z,13.62
2019-04-28T15:15:57.551Z,11.03
2019-04-28T15:18:29.333Z,13.50
2019-04-28T15:21:00.738Z,13.55
2019-04-28T15:23:32.202Z,13.70
2019-04-28T15:26:03.705Z,17.45
2019-04-28T15:28:35.061Z,13.43
2019-04-28T15:31:06.559Z,13.60
2019-04-28T15:33:37.970Z,13.03
2019-04-28T15:36:09.620Z,10.08
2019-04-28T15:38:41.159Z,11.33
2019-04-28T15:41:21.526Z,10.60
2019-04-28T15:43:45.647Z,15.78
2019-04-28T15:46:17.380Z,15.68
2019-04-28T15:48:49.061Z,14.47
2019-04-28T15:51:20.551Z,14.45
2019-04-28T15:53:52.180Z,17.17
2019-04-28T15:56:25.281Z,12.60
2019-04-28T15:58:56.962Z,14.50
2019-04-28T16:01:28.452Z,16.00
2019-04-28T16:03:59.991Z,14.35
2019-04-28T16:06:31.473Z,13.25
2019-04-28T16:09:03.247Z,20.55
2019-04-28T16:14:06.855Z,18.65
2019-04-28T16:16:39.404Z,20.52
2019-04-28T16:19:10.916Z,14.47
2019-04-28T16:21:42.526Z,29.77
2019-04-28T16:24:14.230Z,24.87
2019-04-28T16:26:45.728Z,18.77
2019-04-28T16:29:17.218Z,21.68
2019-04-28T16:31:48.877Z,16.25
2019-04-28T16:34:20.423Z,15.58
2019-04-28T16:36:51.790Z,16.05
2019-04-28T16:39:23.308Z,24.98
2019-04-28T16:41:54.919Z,19.55
2019-04-28T16:44:26.438Z,19.02
2019-04-28T16:46:57.890Z,20.88
2019-04-28T16:49:29.319Z,19.77
2019-04-28T16:52:00.733Z,19.02
2019-04-28T16:54:32.376Z,19.90
2019-04-28T16:57:12.516Z,23.70
2019-04-28T16:59:51.312Z,19.20
2019-04-28T17:02:27.349Z,21.60
2019-04-28T17:04:58.907Z,15.23
2019-04-28T17:07:30.368Z,16.97
2019-04-28T17:10:03.011Z,14.70
2019-04-28T17:12:34.497Z,15.55
2019-04-28T17:15:07.252Z,23.18
2019-04-28T17:17:38.735Z,14.33
2019-04-28T17:20:10.730Z,16.97
2019-04-28T17:22:42.202Z,15.72
2019-04-28T17:25:13.689Z,17.85
2019-04-28T17:27:45.052Z,17.05
2019-04-28T17:30:17.403Z,15.50
2019-04-28T17:32:49.532Z,17.00
2019-04-28T17:35:22.036Z,22.17
2019-04-28T17:38:06.010Z,17.82
2019-04-28T17:40:29.050Z,21.30
2019-04-28T17:43:00.584Z,21.83
2019-04-28T17:45:32.112Z,20.82
2019-04-28T17:48:05.433Z,19.45
2019-04-28T17:53:08.810Z,23.12
2019-04-28T17:55:40.153Z,21.48
2019-04-28T17:58:11.575Z,22.90
2019-04-28T18:00:47.533Z,19.73
2019-04-28T18:03:20.614Z,27.80
2019-04-28T18:05:56.643Z,18.60
2019-04-28T18:08:28.236Z,18.05
2019-04-28T18:10:59.730Z,18.30
2019-04-28T18:13:31.332Z,20.17
2019-04-28T18:16:13.574Z,27.05
2019-04-28T18:18:46.846Z,23.57
2019-04-28T18:21:18.207Z,27.17
2019-04-28T18:23:49.618Z,19.67
2019-04-28T18:26:21.094Z,23.22
2019-04-28T18:28:52.546Z,25.00
2019-04-28T18:31:40.625Z,20.92
2019-04-28T18:34:29.854Z,28.98
2019-04-28T18:37:14.661Z,24.85
2019-04-28T18:40:03.867Z,26.42
2019-04-28T18:42:41.101Z,22.73
2019-04-28T18:45:12.982Z,25.17
2019-04-28T18:47:44.485Z,24.92
2019-04-28T18:50:16.042Z,27.50
2019-04-28T18:52:47.702Z,24.40
2019-04-28T18:55:19.148Z,23.75
2019-04-28T18:57:50.753Z,30.12
2019-04-28T19:00:23.795Z,24.75
2019-04-28T19:02:55.355Z,22.73
2019-04-28T19:05:28.545Z,25.17
2019-04-28T19:08:01.673Z,29.82
2019-04-28T19:10:40.297Z,26.15
2019-04-28T19:13:12.869Z,28.87
2019-04-28T19:15:48.909Z,28.07
2019-04-28T19:18:22.175Z,22.65
2019-04-28T19:20:53.449Z,20.88
2019-04-28T19:23:24.813Z,21.73
2019-04-28T19:25:56.163Z,23.32
2019-04-28T19:28:27.592Z,23.25
2019-04-28T19:30:59.130Z,23.45
2019-04-28T19:33:30.589Z,23.65
2019-04-28T19:36:01.923Z,26.97
2019-04-28T19:38:33.378Z,26.50
2019-04-28T19:41:04.835Z,23.92
2019-04-28T19:43:36.307Z,24.92
2019-04-28T19:46:09.480Z,22.40
2019-04-28T19:48:40.991Z,25.30
2019-04-28T19:51:12.383Z,19.73
2019-04-28T19:53:43.848Z,22.02
2019-04-28T19:56:19.720Z,21.77
2019-04-28T19:59:01.951Z,19.37
2019-04-28T20:01:34.194Z,18.95
2019-04-28T20:04:05.671Z,18.65
2019-04-28T20:06:37.091Z,23.98
2019-04-28T20:09:08.903Z,22.90
2019-04-28T20:14:12.341Z,22.07
2019-04-28T20:16:43.866Z,16.62
2019-04-28T20:19:15.325Z,21.90
2019-04-28T20:21:46.736Z,23.65
2019-04-28T20:24:19.584Z,27.00
2019-04-28T20:26:52.299Z,31.05
2019-04-28T20:29:23.751Z,33.00
2019-04-28T20:31:55.322Z,37.55
2019-04-28T20:34:26.912Z,42.48
2019-04-28T20:37:02.697Z,39.70
2019-04-28T20:39:34.215Z,37.15
2019-04-28T20:42:16.381Z,31.90
2019-04-28T20:44:47.850Z,38.08
2019-04-28T20:47:19.320Z,43.25
2019-04-28T20:49:50.827Z,37.42
2019-04-28T20:52:22.221Z,40.50
2019-04-28T20:54:53.587Z,35.10
2019-04-28T20:57:25.227Z,42.95
2019-04-28T20:59:56.685Z,48.63
2019-04-28T21:02:28.097Z,51.48
2019-04-28T21:04:59.510Z,51.45
2019-04-28T21:07:30.927Z,48.87
2019-04-28T21:10:02.385Z,51.00
2019-04-28T21:12:34.863Z,55.65
2019-04-28T21:15:07.316Z,57.67
2019-04-28T21:17:38.753Z,55.43
2019-04-28T21:20:10.469Z,44.80
2019-04-28T21:22:41.841Z,44.10
2019-04-28T21:25:13.331Z,46.58
2019-04-28T21:27:44.783Z,38.38
2019-04-28T21:30:16.779Z,36.98
2019-04-28T21:32:48.401Z,33.92
2019-04-28T21:35:19.905Z,32.98
2019-04-28T21:37:51.332Z,37.30
2019-04-28T21:40:23.170Z,27.37
2019-04-28T21:43:05.033Z,28.25
2019-04-28T21:45:50.052Z,28.45
2019-04-28T21:51:04.371Z,25.05
2019-04-28T21:53:36.065Z,27.35
2019-04-28T21:56:07.533Z,28.07
2019-04-28T21:58:38.978Z,28.80
2019-04-28T22:01:13.400Z,32.80
2019-04-28T22:03:46.900Z,27.67
2019-04-28T22:06:18.777Z,28.55
2019-04-28T22:08:50.431Z,30.52
2019-04-28T22:11:21.859Z,28.27
2019-04-28T22:13:53.483Z,43.85
2019-04-28T22:16:25.002Z,51.28
2019-04-28T22:18:56.514Z,58.02
2019-04-28T22:21:28.620Z,53.83
2019-04-28T22:24:01.776Z,54.25
2019-04-28T22:26:43.523Z,54.40
2019-04-28T22:29:14.986Z,57.95
2019-04-28T22:31:46.981Z,63.30
2019-04-28T22:34:18.534Z,59.77
2019-04-28T22:36:49.998Z,63.02
2019-04-28T22:39:21.543Z,60.70
2019-04-28T22:41:53.025Z,58.02
2019-04-28T22:44:24.543Z,52.62
2019-04-28T22:46:55.970Z,57.70
2019-04-28T22:49:27.511Z,58.00
2019-04-28T22:51:59.040Z,54.98
2019-04-28T22:54:35.367Z,58.25
2019-04-28T22:57:26.733Z,51.10
2019-04-28T22:59:59.805Z,57.95
2019-04-28T23:02:31.975Z,54.00
2019-04-28T23:05:05.735Z,50.92
2019-04-28T23:07:37.146Z,48.90
2019-04-28T23:10:09.414Z,46.95
2019-04-28T23:12:40.902Z,37.65
2019-04-28T23:15:13.997Z,36.28
2019-04-28T23:17:45.641Z,39.35
2019-04-28T23:20:17.081Z,37.40
2019-04-28T23:22:50.311Z,34.50
2019-04-28T23:25:21.904Z,34.95
2019-04-28T23:27:53.385Z,32.58
2019-04-28T23:30:36.626Z,28.42
2019-04-28T23:33:08.133Z,29.95
2019-04-28T23:35:39.932Z,23.50
2019-04-28T23:38:11.563Z,26.15
2019-04-28T23:40:44.602Z,20.12
2019-04-28T23:43:17.927Z,17.48
2019-04-28T23:45:49.345Z,22.55
2019-04-28T23:48:20.851Z,14.75
2019-04-28T23:50:53.902Z,15.48
2019-04-28T23:53:42.951Z,19.25
2019-04-28T23:56:14.465Z,16.07
2019-04-28T23:58:45.900Z,13.35
